sensor_id;sensor_type;location;lat;lon;timestamp;P1;durP1;ratioP1;P2;durP2;ratioP2
41711;SDS011;27399;51.516;13.670;2023-01-04T00:01:29;7.53;;;3.15;;
41711;SDS011;27399;51.516;13.670;2023-01-04T00:03:55;6.95;;;3.28;;
41711;SDS011;27399;51.516;13.670;2023-01-04T00:06:20;8.10;;;3.00;;
41711;SDS011;27399;51.516;13.670;2023-01-04T00:08:46;7.93;;;3.45;;
41711;SDS011;27399;51.516;13.670;2023-01-04T00:11:13;14.18;;;4.15;;
41711;SDS011;27399;51.516;13.670;2023-01-04T00:13:44;6.82;;;3.35;;
41711;SDS011;27399;51.516;13.670;2023-01-04T00:16:14;6.90;;;3.78;;
41711;SDS011;27399;51.516;13.670;2023-01-04T00:18:45;6.20;;;3.75;;
41711;SDS011;27399;51.516;13.670;2023-01-04T00:21:18;13.27;;;4.18;;
41711;SDS011;27399;51.516;13.670;2023-01-04T00:23:45;7.38;;;3.40;;
41711;SDS011;27399;51.516;13.670;2023-01-04T00:26:16;6.25;;;3.63;;
41711;SDS011;27399;51.516;13.670;2023-01-04T00:28:44;4.40;;;3.13;;
41711;SDS011;27399;51.516;13.670;2023-01-04T00:31:10;6.50;;;3.65;;
41711;SDS011;27399;51.516;13.670;2023-01-04T00:33:40;8.02;;;3.08;;
41711;SDS011;27399;51.516;13.670;2023-01-04T00:36:10;8.63;;;3.97;;
41711;SDS011;27399;51.516;13.670;2023-01-04T00:38:37;6.60;;;3.80;;
41711;SDS011;27399;51.516;13.670;2023-01-04T00:41:04;8.68;;;3.30;;
41711;SDS011;27399;51.516;13.670;2023-01-04T00:43:31;5.05;;;3.08;;
41711;SDS011;27399;51.516;13.670;2023-01-04T00:45:56;7.55;;;3.90;;
41711;SDS011;27399;51.516;13.670;2023-01-04T00:48:22;5.10;;;3.03;;
41711;SDS011;27399;51.516;13.670;2023-01-04T00:50:48;12.35;;;3.53;;
41711;SDS011;27399;51.516;13.670;2023-01-04T00:53:15;6.35;;;3.72;;
41711;SDS011;27399;51.516;13.670;2023-01-04T00:55:41;5.55;;;3.00;;
41711;SDS011;27399;51.516;13.670;2023-01-04T00:58:07;9.57;;;3.17;;
41711;SDS011;27399;51.516;13.670;2023-01-04T01:00:33;8.95;;;3.78;;
41711;SDS011;27399;51.516;13.670;2023-01-04T01:02:59;7.78;;;3.25;;
41711;SDS011;27399;51.516;13.670;2023-01-04T01:05:25;8.27;;;3.47;;
41711;SDS011;27399;51.516;13.670;2023-01-04T01:07:51;4.65;;;3.03;;
41711;SDS011;27399;51.516;13.670;2023-01-04T01:10:17;6.82;;;3.33;;
41711;SDS011;27399;51.516;13.670;2023-01-04T01:12:42;6.78;;;3.05;;
41711;SDS011;27399;51.516;13.670;2023-01-04T01:15:08;9.95;;;3.50;;
41711;SDS011;27399;51.516;13.670;2023-01-04T01:17:34;6.70;;;3.00;;
41711;SDS011;27399;51.516;13.670;2023-01-04T01:20:00;6.15;;;3.20;;
41711;SDS011;27399;51.516;13.670;2023-01-04T01:22:28;7.28;;;2.67;;
41711;SDS011;27399;51.516;13.670;2023-01-04T01:24:54;4.15;;;2.65;;
41711;SDS011;27399;51.516;13.670;2023-01-04T01:27:20;4.03;;;2.38;;
41711;SDS011;27399;51.516;13.670;2023-01-04T01:29:45;6.20;;;2.47;;
41711;SDS011;27399;51.516;13.670;2023-01-04T01:32:11;4.00;;;2.42;;
41711;SDS011;27399;51.516;13.670;2023-01-04T01:34:36;7.35;;;3.08;;
41711;SDS011;27399;51.516;13.670;2023-01-04T01:37:02;4.65;;;2.30;;
41711;SDS011;27399;51.516;13.670;2023-01-04T01:39:28;5.57;;;2.60;;
41711;SDS011;27399;51.516;13.670;2023-01-04T01:41:53;4.50;;;2.60;;
41711;SDS011;27399;51.516;13.670;2023-01-04T01:47:20;4.68;;;2.10;;
41711;SDS011;27399;51.516;13.670;2023-01-04T01:49:51;3.08;;;1.90;;
41711;SDS011;27399;51.516;13.670;2023-01-04T01:52:23;6.15;;;1.80;;
41711;SDS011;27399;51.516;13.670;2023-01-04T01:54:55;4.10;;;2.05;;
41711;SDS011;27399;51.516;13.670;2023-01-04T01:57:25;3.75;;;2.00;;
41711;SDS011;27399;51.516;13.670;2023-01-04T01:59:55;2.93;;;1.83;;
41711;SDS011;27399;51.516;13.670;2023-01-04T02:02:23;4.38;;;1.98;;
41711;SDS011;27399;51.516;13.670;2023-01-04T02:04:49;4.70;;;1.80;;
41711;SDS011;27399;51.516;13.670;2023-01-04T02:07:19;9.25;;;2.17;;
41711;SDS011;27399;51.516;13.670;2023-01-04T02:09:48;6.80;;;2.20;;
41711;SDS011;27399;51.516;13.670;2023-01-04T02:12:15;3.78;;;1.92;;
41711;SDS011;27399;51.516;13.670;2023-01-04T02:14:41;4.28;;;1.95;;
41711;SDS011;27399;51.516;13.670;2023-01-04T02:17:16;7.10;;;1.85;;
41711;SDS011;27399;51.516;13.670;2023-01-04T02:34:19;3.55;;;1.98;;
41711;SDS011;27399;51.516;13.670;2023-01-04T02:39:47;3.70;;;2.00;;
41711;SDS011;27399;51.516;13.670;2023-01-04T02:42:38;5.22;;;1.92;;
41711;SDS011;27399;51.516;13.670;2023-01-04T02:45:51;5.00;;;3.35;;
41711;SDS011;27399;51.516;13.670;2023-01-04T02:48:22;4.50;;;1.80;;
41711;SDS011;27399;51.516;13.670;2023-01-04T02:51:29;7.93;;;2.25;;
41711;SDS011;27399;51.516;13.670;2023-01-04T02:54:03;2.80;;;1.85;;
41711;SDS011;27399;51.516;13.670;2023-01-04T03:11:14;4.25;;;1.50;;
41711;SDS011;27399;51.516;13.670;2023-01-04T03:14:01;2.40;;;1.48;;
41711;SDS011;27399;51.516;13.670;2023-01-04T03:16:33;3.50;;;1.67;;
41711;SDS011;27399;51.516;13.670;2023-01-04T03:19:02;5.20;;;1.50;;
41711;SDS011;27399;51.516;13.670;2023-01-04T03:21:33;4.63;;;1.73;;
41711;SDS011;27399;51.516;13.670;2023-01-04T03:24:00;2.95;;;1.52;;
41711;SDS011;27399;51.516;13.670;2023-01-04T03:26:48;2.25;;;1.48;;
41711;SDS011;27399;51.516;13.670;2023-01-04T03:29:37;2.03;;;1.35;;
41711;SDS011;27399;51.516;13.670;2023-01-04T03:32:36;4.67;;;1.70;;
41711;SDS011;27399;51.516;13.670;2023-01-04T03:35:31;4.45;;;1.52;;
41711;SDS011;27399;51.516;13.670;2023-01-04T03:47:16;3.05;;;1.40;;
41711;SDS011;27399;51.516;13.670;2023-01-04T03:50:15;5.38;;;1.52;;
41711;SDS011;27399;51.516;13.670;2023-01-04T03:52:49;4.63;;;1.80;;
41711;SDS011;27399;51.516;13.670;2023-01-04T03:55:17;2.97;;;1.60;;
41711;SDS011;27399;51.516;13.670;2023-01-04T03:57:43;5.93;;;1.88;;
41711;SDS011;27399;51.516;13.670;2023-01-04T04:00:12;7.38;;;1.58;;
41711;SDS011;27399;51.516;13.670;2023-01-04T04:02:41;2.97;;;1.50;;
41711;SDS011;27399;51.516;13.670;2023-01-04T04:05:10;2.53;;;1.38;;
41711;SDS011;27399;51.516;13.670;2023-01-04T04:08:01;2.25;;;1.50;;
41711;SDS011;27399;51.516;13.670;2023-01-04T04:10:45;3.85;;;1.60;;
41711;SDS011;27399;51.516;13.670;2023-01-04T04:13:11;5.63;;;2.05;;
41711;SDS011;27399;51.516;13.670;2023-01-04T04:15:36;2.20;;;1.40;;
41711;SDS011;27399;51.516;13.670;2023-01-04T04:18:04;2.67;;;1.40;;
41711;SDS011;27399;51.516;13.670;2023-01-04T04:20:29;2.15;;;1.40;;
41711;SDS011;27399;51.516;13.670;2023-01-04T04:22:55;3.33;;;1.70;;
41711;SDS011;27399;51.516;13.670;2023-01-04T04:25:20;2.22;;;1.38;;
41711;SDS011;27399;51.516;13.670;2023-01-04T04:27:46;3.53;;;2.03;;
41711;SDS011;27399;51.516;13.670;2023-01-04T04:30:12;2.22;;;1.50;;
41711;SDS011;27399;51.516;13.670;2023-01-04T04:32:37;2.80;;;1.30;;
41711;SDS011;27399;51.516;13.670;2023-01-04T04:35:03;5.60;;;1.75;;
41711;SDS011;27399;51.516;13.670;2023-01-04T04:37:29;4.38;;;1.35;;
41711;SDS011;27399;51.516;13.670;2023-01-04T04:39:56;4.35;;;1.58;;
41711;SDS011;27399;51.516;13.670;2023-01-04T04:42:22;5.30;;;1.55;;
41711;SDS011;27399;51.516;13.670;2023-01-04T04:44:48;4.35;;;1.40;;
41711;SDS011;27399;51.516;13.670;2023-01-04T04:47:14;2.92;;;1.60;;
41711;SDS011;27399;51.516;13.670;2023-01-04T04:49:39;4.80;;;1.67;;
41711;SDS011;27399;51.516;13.670;2023-01-04T04:52:06;2.88;;;1.33;;
41711;SDS011;27399;51.516;13.670;2023-01-04T04:54:32;3.40;;;1.40;;
41711;SDS011;27399;51.516;13.670;2023-01-04T04:56:58;3.00;;;1.50;;
41711;SDS011;27399;51.516;13.670;2023-01-04T04:59:24;4.68;;;1.42;;
41711;SDS011;27399;51.516;13.670;2023-01-04T05:01:49;4.45;;;1.42;;
41711;SDS011;27399;51.516;13.670;2023-01-04T05:04:15;2.13;;;1.40;;
41711;SDS011;27399;51.516;13.670;2023-01-04T05:06:44;1.95;;;1.17;;
41711;SDS011;27399;51.516;13.670;2023-01-04T05:09:12;5.18;;;1.70;;
41711;SDS011;27399;51.516;13.670;2023-01-04T05:11:38;3.58;;;1.58;;
41711;SDS011;27399;51.516;13.670;2023-01-04T05:14:22;5.60;;;1.40;;
41711;SDS011;27399;51.516;13.670;2023-01-04T05:16:48;2.45;;;1.40;;
41711;SDS011;27399;51.516;13.670;2023-01-04T05:19:14;3.05;;;1.10;;
41711;SDS011;27399;51.516;13.670;2023-01-04T05:21:40;3.45;;;1.63;;
41711;SDS011;27399;51.516;13.670;2023-01-04T05:24:06;5.88;;;1.63;;
41711;SDS011;27399;51.516;13.670;2023-01-04T05:26:32;8.23;;;2.05;;
41711;SDS011;27399;51.516;13.670;2023-01-04T05:28:57;4.90;;;1.80;;
41711;SDS011;27399;51.516;13.670;2023-01-04T05:31:24;4.53;;;1.67;;
41711;SDS011;27399;51.516;13.670;2023-01-04T05:33:50;3.33;;;1.33;;
41711;SDS011;27399;51.516;13.670;2023-01-04T05:36:15;4.60;;;1.55;;
41711;SDS011;27399;51.516;13.670;2023-01-04T05:38:41;2.97;;;1.63;;
41711;SDS011;27399;51.516;13.670;2023-01-04T05:41:07;3.50;;;1.40;;
41711;SDS011;27399;51.516;13.670;2023-01-04T05:43:52;1.67;;;1.30;;
41711;SDS011;27399;51.516;13.670;2023-01-04T05:46:18;3.58;;;1.60;;
41711;SDS011;27399;51.516;13.670;2023-01-04T05:48:44;2.78;;;1.50;;
41711;SDS011;27399;51.516;13.670;2023-01-04T05:51:09;6.20;;;1.45;;
41711;SDS011;27399;51.516;13.670;2023-01-04T05:53:35;1.83;;;1.23;;
41711;SDS011;27399;51.516;13.670;2023-01-04T05:56:01;2.45;;;1.60;;
41711;SDS011;27399;51.516;13.670;2023-01-04T05:58:26;6.35;;;2.00;;
41711;SDS011;27399;51.516;13.670;2023-01-04T06:00:53;4.43;;;1.48;;
41711;SDS011;27399;51.516;13.670;2023-01-04T06:03:18;4.53;;;1.48;;
41711;SDS011;27399;51.516;13.670;2023-01-04T06:05:48;4.93;;;1.73;;
41711;SDS011;27399;51.516;13.670;2023-01-04T06:08:16;3.15;;;1.40;;
41711;SDS011;27399;51.516;13.670;2023-01-04T06:10:42;2.17;;;1.40;;
41711;SDS011;27399;51.516;13.670;2023-01-04T06:13:07;3.45;;;1.33;;
41711;SDS011;27399;51.516;13.670;2023-01-04T06:15:33;4.32;;;1.85;;
41711;SDS011;27399;51.516;13.670;2023-01-04T06:17:59;5.18;;;1.60;;
41711;SDS011;27399;51.516;13.670;2023-01-04T06:20:25;4.90;;;1.52;;
41711;SDS011;27399;51.516;13.670;2023-01-04T06:22:50;3.80;;;1.58;;
41711;SDS011;27399;51.516;13.670;2023-01-04T06:25:16;4.55;;;1.50;;
41711;SDS011;27399;51.516;13.670;2023-01-04T06:27:41;3.00;;;1.13;;
41711;SDS011;27399;51.516;13.670;2023-01-04T06:30:07;5.57;;;1.80;;
41711;SDS011;27399;51.516;13.670;2023-01-04T06:32:34;3.28;;;1.42;;
41711;SDS011;27399;51.516;13.670;2023-01-04T06:34:59;3.92;;;1.80;;
41711;SDS011;27399;51.516;13.670;2023-01-04T06:37:25;2.75;;;1.45;;
41711;SDS011;27399;51.516;13.670;2023-01-04T06:39:51;5.72;;;1.88;;
41711;SDS011;27399;51.516;13.670;2023-01-04T06:42:17;2.38;;;1.33;;
41711;SDS011;27399;51.516;13.670;2023-01-04T06:45:01;5.28;;;1.33;;
41711;SDS011;27399;51.516;13.670;2023-01-04T06:47:27;1.88;;;1.30;;
41711;SDS011;27399;51.516;13.670;2023-01-04T06:49:52;6.30;;;1.30;;
41711;SDS011;27399;51.516;13.670;2023-01-04T06:52:18;2.72;;;1.42;;
41711;SDS011;27399;51.516;13.670;2023-01-04T06:54:44;2.78;;;1.23;;
41711;SDS011;27399;51.516;13.670;2023-01-04T06:57:09;5.18;;;1.20;;
41711;SDS011;27399;51.516;13.670;2023-01-04T06:59:35;6.13;;;1.30;;
41711;SDS011;27399;51.516;13.670;2023-01-04T07:02:01;2.75;;;1.27;;
41711;SDS011;27399;51.516;13.670;2023-01-04T07:04:26;4.45;;;1.35;;
41711;SDS011;27399;51.516;13.670;2023-01-04T07:06:52;4.65;;;1.30;;
41711;SDS011;27399;51.516;13.670;2023-01-04T07:09:18;2.60;;;1.10;;
41711;SDS011;27399;51.516;13.670;2023-01-04T07:11:43;2.50;;;1.30;;
41711;SDS011;27399;51.516;13.670;2023-01-04T07:14:09;3.55;;;1.10;;
41711;SDS011;27399;51.516;13.670;2023-01-04T07:16:35;3.15;;;1.33;;
41711;SDS011;27399;51.516;13.670;2023-01-04T07:19:01;4.20;;;1.60;;
41711;SDS011;27399;51.516;13.670;2023-01-04T07:21:26;2.13;;;1.40;;
41711;SDS011;27399;51.516;13.670;2023-01-04T07:23:53;4.65;;;1.38;;
41711;SDS011;27399;51.516;13.670;2023-01-04T07:26:19;4.10;;;1.20;;
41711;SDS011;27399;51.516;13.670;2023-01-04T07:28:45;2.25;;;1.10;;
41711;SDS011;27399;51.516;13.670;2023-01-04T07:31:29;3.10;;;1.52;;
41711;SDS011;27399;51.516;13.670;2023-01-04T07:33:54;1.83;;;1.13;;
41711;SDS011;27399;51.516;13.670;2023-01-04T07:36:20;4.78;;;1.10;;
41711;SDS011;27399;51.516;13.670;2023-01-04T07:38:45;4.68;;;1.00;;
41711;SDS011;27399;51.516;13.670;2023-01-04T07:41:11;4.20;;;1.50;;
41711;SDS011;27399;51.516;13.670;2023-01-04T07:43:37;3.50;;;1.27;;
41711;SDS011;27399;51.516;13.670;2023-01-04T07:46:03;2.55;;;1.63;;
41711;SDS011;27399;51.516;13.670;2023-01-04T07:48:28;1.27;;;0.88;;
41711;SDS011;27399;51.516;13.670;2023-01-04T07:50:54;4.75;;;1.20;;
41711;SDS011;27399;51.516;13.670;2023-01-04T07:53:20;2.15;;;0.70;;
41711;SDS011;27399;51.516;13.670;2023-01-04T07:55:45;2.28;;;1.05;;
41711;SDS011;27399;51.516;13.670;2023-01-04T07:58:11;1.35;;;0.70;;
41711;SDS011;27399;51.516;13.670;2023-01-04T08:00:36;1.10;;;0.88;;
41711;SDS011;27399;51.516;13.670;2023-01-04T08:03:02;1.63;;;0.68;;
41711;SDS011;27399;51.516;13.670;2023-01-04T08:05:30;2.53;;;1.00;;
41711;SDS011;27399;51.516;13.670;2023-01-04T08:07:57;3.75;;;0.85;;
41711;SDS011;27399;51.516;13.670;2023-01-04T08:10:22;3.55;;;0.70;;
41711;SDS011;27399;51.516;13.670;2023-01-04T08:12:48;2.45;;;0.82;;
41711;SDS011;27399;51.516;13.670;2023-01-04T08:15:14;14.85;;;1.30;;
41711;SDS011;27399;51.516;13.670;2023-01-04T08:17:39;2.58;;;1.05;;
41711;SDS011;27399;51.516;13.670;2023-01-04T08:20:05;1.30;;;0.68;;
41711;SDS011;27399;51.516;13.670;2023-01-04T08:22:31;3.00;;;1.10;;
41711;SDS011;27399;51.516;13.670;2023-01-04T08:24:57;1.55;;;0.93;;
41711;SDS011;27399;51.516;13.670;2023-01-04T08:27:22;2.55;;;0.80;;
41711;SDS011;27399;51.516;13.670;2023-01-04T08:29:48;3.85;;;0.90;;
41711;SDS011;27399;51.516;13.670;2023-01-04T08:32:14;4.88;;;1.00;;
41711;SDS011;27399;51.516;13.670;2023-01-04T08:34:39;3.17;;;0.80;;
41711;SDS011;27399;51.516;13.670;2023-01-04T08:37:05;3.40;;;1.10;;
41711;SDS011;27399;51.516;13.670;2023-01-04T08:39:31;6.93;;;1.17;;
41711;SDS011;27399;51.516;13.670;2023-01-04T08:42:00;4.65;;;1.08;;
41711;SDS011;27399;51.516;13.670;2023-01-04T08:44:26;2.30;;;0.98;;
41711;SDS011;27399;51.516;13.670;2023-01-04T08:46:52;2.17;;;0.90;;
41711;SDS011;27399;51.516;13.670;2023-01-04T08:49:18;3.63;;;0.80;;
41711;SDS011;27399;51.516;13.670;2023-01-04T08:51:45;3.33;;;0.82;;
41711;SDS011;27399;51.516;13.670;2023-01-04T08:54:11;2.33;;;0.88;;
41711;SDS011;27399;51.516;13.670;2023-01-04T08:56:38;3.65;;;0.90;;
41711;SDS011;27399;51.516;13.670;2023-01-04T08:59:04;1.33;;;0.85;;
41711;SDS011;27399;51.516;13.670;2023-01-04T09:01:31;2.42;;;0.98;;
41711;SDS011;27399;51.516;13.670;2023-01-04T09:04:03;5.78;;;1.00;;
41711;SDS011;27399;51.516;13.670;2023-01-04T09:06:29;1.42;;;0.88;;
41711;SDS011;27399;51.516;13.670;2023-01-04T09:08:55;4.88;;;1.10;;
41711;SDS011;27399;51.516;13.670;2023-01-04T09:11:22;2.30;;;0.80;;
41711;SDS011;27399;51.516;13.670;2023-01-04T09:13:48;4.47;;;0.90;;
41711;SDS011;27399;51.516;13.670;2023-01-04T09:16:21;3.17;;;0.80;;
41711;SDS011;27399;51.516;13.670;2023-01-04T09:18:47;3.50;;;1.30;;
41711;SDS011;27399;51.516;13.670;2023-01-04T09:21:14;1.83;;;0.80;;
41711;SDS011;27399;51.516;13.670;2023-01-04T09:23:41;1.40;;;0.75;;
41711;SDS011;27399;51.516;13.670;2023-01-04T09:26:09;1.42;;;0.70;;
41711;SDS011;27399;51.516;13.670;2023-01-04T09:28:39;2.17;;;1.00;;
41711;SDS011;27399;51.516;13.670;2023-01-04T09:31:09;1.85;;;0.70;;
41711;SDS011;27399;51.516;13.670;2023-01-04T09:33:40;2.90;;;0.60;;
41711;SDS011;27399;51.516;13.670;2023-01-04T09:36:06;3.00;;;1.70;;
41711;SDS011;27399;51.516;13.670;2023-01-04T09:38:33;1.65;;;0.73;;
41711;SDS011;27399;51.516;13.670;2023-01-04T09:43:47;2.17;;;0.60;;
41711;SDS011;27399;51.516;13.670;2023-01-04T09:46:57;8.68;;;1.20;;
41711;SDS011;27399;51.516;13.670;2023-01-04T09:51:50;4.20;;;0.90;;
41711;SDS011;27399;51.516;13.670;2023-01-04T09:57:17;1.75;;;0.80;;
41711;SDS011;27399;51.516;13.670;2023-01-04T09:59:48;1.27;;;0.90;;
41711;SDS011;27399;51.516;13.670;2023-01-04T10:02:24;1.40;;;0.65;;
41711;SDS011;27399;51.516;13.670;2023-01-04T10:05:03;3.90;;;1.00;;
41711;SDS011;27399;51.516;13.670;2023-01-04T10:07:31;2.42;;;0.77;;
41711;SDS011;27399;51.516;13.670;2023-01-04T10:09:58;6.28;;;0.88;;
41711;SDS011;27399;51.516;13.670;2023-01-04T10:12:32;2.45;;;0.77;;
41711;SDS011;27399;51.516;13.670;2023-01-04T10:20:37;2.97;;;0.77;;
41711;SDS011;27399;51.516;13.670;2023-01-04T10:23:40;3.38;;;0.90;;
41711;SDS011;27399;51.516;13.670;2023-01-04T10:26:35;2.30;;;0.93;;
41711;SDS011;27399;51.516;13.670;2023-01-04T10:31:59;2.58;;;0.93;;
41711;SDS011;27399;51.516;13.670;2023-01-04T10:34:48;2.17;;;0.80;;
41711;SDS011;27399;51.516;13.670;2023-01-04T10:39:43;2.97;;;1.05;;
41711;SDS011;27399;51.516;13.670;2023-01-04T10:42:18;4.35;;;0.75;;
41711;SDS011;27399;51.516;13.670;2023-01-04T10:47:55;1.50;;;0.95;;
41711;SDS011;27399;51.516;13.670;2023-01-04T10:50:37;2.10;;;1.00;;
41711;SDS011;27399;51.516;13.670;2023-01-04T10:58:43;3.97;;;0.90;;
41711;SDS011;27399;51.516;13.670;2023-01-04T11:01:24;1.80;;;0.80;;
41711;SDS011;27399;51.516;13.670;2023-01-04T11:07:06;1.92;;;1.17;;
41711;SDS011;27399;51.516;13.670;2023-01-04T11:09:44;1.95;;;1.02;;
41711;SDS011;27399;51.516;13.670;2023-01-04T11:12:16;1.52;;;0.90;;
41711;SDS011;27399;51.516;13.670;2023-01-04T11:14:44;2.55;;;1.20;;
41711;SDS011;27399;51.516;13.670;2023-01-04T11:17:10;2.60;;;0.95;;
41711;SDS011;27399;51.516;13.670;2023-01-04T11:19:36;3.53;;;1.00;;
41711;SDS011;27399;51.516;13.670;2023-01-04T11:22:05;2.75;;;0.77;;
41711;SDS011;27399;51.516;13.670;2023-01-04T11:24:41;1.05;;;0.77;;
41711;SDS011;27399;51.516;13.670;2023-01-04T11:27:16;3.00;;;1.25;;
41711;SDS011;27399;51.516;13.670;2023-01-04T11:29:50;4.18;;;1.15;;
41711;SDS011;27399;51.516;13.670;2023-01-04T11:35:30;1.00;;;0.70;;
41711;SDS011;27399;51.516;13.670;2023-01-04T11:38:16;1.40;;;1.10;;
41711;SDS011;27399;51.516;13.670;2023-01-04T11:40:54;2.55;;;1.20;;
41711;SDS011;27399;51.516;13.670;2023-01-04T11:43:20;1.02;;;0.80;;
41711;SDS011;27399;51.516;13.670;2023-01-04T11:46:03;1.60;;;0.90;;
41711;SDS011;27399;51.516;13.670;2023-01-04T11:48:41;3.08;;;0.90;;
41711;SDS011;27399;51.516;13.670;2023-01-04T11:51:14;1.45;;;1.00;;
41711;SDS011;27399;51.516;13.670;2023-01-04T11:54:04;2.15;;;1.00;;
41711;SDS011;27399;51.516;13.670;2023-01-04T11:56:31;2.05;;;1.02;;
41711;SDS011;27399;51.516;13.670;2023-01-04T12:01:31;5.07;;;1.77;;
41711;SDS011;27399;51.516;13.670;2023-01-04T12:03:59;1.92;;;1.30;;
41711;SDS011;27399;51.516;13.670;2023-01-04T12:06:41;4.13;;;2.58;;
41711;SDS011;27399;51.516;13.670;2023-01-04T12:09:13;5.53;;;1.38;;
41711;SDS011;27399;51.516;13.670;2023-01-04T12:11:40;1.70;;;1.17;;
41711;SDS011;27399;51.516;13.670;2023-01-04T12:19:44;3.45;;;1.23;;
41711;SDS011;27399;51.516;13.670;2023-01-04T12:22:28;5.85;;;1.83;;
41711;SDS011;27399;51.516;13.670;2023-01-04T12:24:59;3.35;;;1.58;;
41711;SDS011;27399;51.516;13.670;2023-01-04T12:27:26;4.43;;;1.75;;
41711;SDS011;27399;51.516;13.670;2023-01-04T12:29:56;2.22;;;1.27;;
41711;SDS011;27399;51.516;13.670;2023-01-04T12:34:51;2.08;;;0.90;;
41711;SDS011;27399;51.516;13.670;2023-01-04T12:45:41;2.45;;;1.13;;
41711;SDS011;27399;51.516;13.670;2023-01-04T12:48:32;2.00;;;0.93;;
41711;SDS011;27399;51.516;13.670;2023-01-04T12:51:24;1.55;;;1.05;;
41711;SDS011;27399;51.516;13.670;2023-01-04T12:53:54;1.75;;;0.90;;
41711;SDS011;27399;51.516;13.670;2023-01-04T12:56:22;4.60;;;1.30;;
41711;SDS011;27399;51.516;13.670;2023-01-04T12:59:07;1.42;;;0.90;;
41711;SDS011;27399;51.516;13.670;2023-01-04T13:01:35;2.92;;;1.05;;
41711;SDS011;27399;51.516;13.670;2023-01-04T13:04:16;1.40;;;1.02;;
41711;SDS011;27399;51.516;13.670;2023-01-04T13:06:52;1.83;;;1.08;;
41711;SDS011;27399;51.516;13.670;2023-01-04T13:09:19;2.17;;;1.42;;
41711;SDS011;27399;51.516;13.670;2023-01-04T13:14:17;2.47;;;1.25;;
41711;SDS011;27399;51.516;13.670;2023-01-04T13:19:46;4.10;;;1.45;;
41711;SDS011;27399;51.516;13.670;2023-01-04T13:22:17;1.58;;;0.98;;
41711;SDS011;27399;51.516;13.670;2023-01-04T13:24:45;1.08;;;0.70;;
41711;SDS011;27399;51.516;13.670;2023-01-04T13:27:14;1.40;;;0.93;;
41711;SDS011;27399;51.516;13.670;2023-01-04T13:29:42;1.48;;;0.98;;
41711;SDS011;27399;51.516;13.670;2023-01-04T13:34:59;1.15;;;0.80;;
41711;SDS011;27399;51.516;13.670;2023-01-04T13:37:40;1.67;;;0.82;;
41711;SDS011;27399;51.516;13.670;2023-01-04T13:45:57;1.58;;;0.60;;
41711;SDS011;27399;51.516;13.670;2023-01-04T13:48:30;1.27;;;0.70;;
41711;SDS011;27399;51.516;13.670;2023-01-04T13:51:21;2.03;;;1.10;;
41711;SDS011;27399;51.516;13.670;2023-01-04T13:53:58;1.55;;;1.15;;
41711;SDS011;27399;51.516;13.670;2023-01-04T13:58:52;1.73;;;1.02;;
41711;SDS011;27399;51.516;13.670;2023-01-04T14:01:19;1.50;;;0.85;;
41711;SDS011;27399;51.516;13.670;2023-01-04T14:03:54;1.15;;;0.98;;
41711;SDS011;27399;51.516;13.670;2023-01-04T14:11:42;2.70;;;1.00;;
41711;SDS011;27399;51.516;13.670;2023-01-04T14:19:56;1.35;;;0.82;;
41711;SDS011;27399;51.516;13.670;2023-01-04T14:22:28;1.92;;;0.90;;
41711;SDS011;27399;51.516;13.670;2023-01-04T14:24:58;1.23;;;0.88;;
41711;SDS011;27399;51.516;13.670;2023-01-04T14:27:34;4.45;;;1.08;;
41711;SDS011;27399;51.516;13.670;2023-01-04T14:35:17;2.17;;;1.10;;
41711;SDS011;27399;51.516;13.670;2023-01-04T14:37:46;1.63;;;1.20;;
41711;SDS011;27399;51.516;13.670;2023-01-04T14:40:22;1.20;;;0.75;;
41711;SDS011;27399;51.516;13.670;2023-01-04T14:42:52;1.95;;;1.10;;
41711;SDS011;27399;51.516;13.670;2023-01-04T14:45:20;1.05;;;0.77;;
41711;SDS011;27399;51.516;13.670;2023-01-04T14:47:46;2.05;;;1.00;;
41711;SDS011;27399;51.516;13.670;2023-01-04T14:50:15;1.35;;;0.95;;
41711;SDS011;27399;51.516;13.670;2023-01-04T14:52:51;2.15;;;1.10;;
41711;SDS011;27399;51.516;13.670;2023-01-04T14:55:20;1.08;;;0.80;;
41711;SDS011;27399;51.516;13.670;2023-01-04T14:57:47;3.50;;;1.30;;
41711;SDS011;27399;51.516;13.670;2023-01-04T15:00:14;1.70;;;0.90;;
41711;SDS011;27399;51.516;13.670;2023-01-04T15:02:40;1.75;;;0.95;;
41711;SDS011;27399;51.516;13.670;2023-01-04T15:05:06;1.88;;;1.17;;
41711;SDS011;27399;51.516;13.670;2023-01-04T15:07:36;1.42;;;1.05;;
41711;SDS011;27399;51.516;13.670;2023-01-04T15:10:14;1.55;;;1.05;;
41711;SDS011;27399;51.516;13.670;2023-01-04T15:12:49;1.20;;;0.85;;
41711;SDS011;27399;51.516;13.670;2023-01-04T15:15:15;13.13;;;5.25;;
41711;SDS011;27399;51.516;13.670;2023-01-04T15:17:41;8.73;;;3.75;;
41711;SDS011;27399;51.516;13.670;2023-01-04T15:20:07;2.95;;;1.30;;
41711;SDS011;27399;51.516;13.670;2023-01-04T15:22:33;3.28;;;1.70;;
41711;SDS011;27399;51.516;13.670;2023-01-04T15:24:58;1.80;;;1.05;;
41711;SDS011;27399;51.516;13.670;2023-01-04T15:27:27;11.10;;;2.40;;
41711;SDS011;27399;51.516;13.670;2023-01-04T15:29:53;4.53;;;1.20;;
41711;SDS011;27399;51.516;13.670;2023-01-04T15:32:18;3.15;;;1.00;;
41711;SDS011;27399;51.516;13.670;2023-01-04T15:34:44;1.50;;;0.88;;
41711;SDS011;27399;51.516;13.670;2023-01-04T15:37:12;1.67;;;1.10;;
41711;SDS011;27399;51.516;13.670;2023-01-04T15:39:37;1.13;;;0.80;;
41711;SDS011;27399;51.516;13.670;2023-01-04T15:42:03;3.75;;;0.93;;
41711;SDS011;27399;51.516;13.670;2023-01-04T15:44:47;1.60;;;0.60;;
41711;SDS011;27399;51.516;13.670;2023-01-04T15:47:13;2.00;;;1.17;;
41711;SDS011;27399;51.516;13.670;2023-01-04T15:49:38;2.13;;;0.75;;
41711;SDS011;27399;51.516;13.670;2023-01-04T15:52:04;1.50;;;0.80;;
41711;SDS011;27399;51.516;13.670;2023-01-04T15:54:30;1.90;;;1.00;;
41711;SDS011;27399;51.516;13.670;2023-01-04T15:56:55;1.25;;;0.93;;
41711;SDS011;27399;51.516;13.670;2023-01-04T15:59:21;1.65;;;1.00;;
41711;SDS011;27399;51.516;13.670;2023-01-04T16:01:47;1.45;;;0.77;;
41711;SDS011;27399;51.516;13.670;2023-01-04T16:04:13;1.20;;;1.08;;
41711;SDS011;27399;51.516;13.670;2023-01-04T16:06:39;1.52;;;0.75;;
41711;SDS011;27399;51.516;13.670;2023-01-04T16:09:05;2.03;;;0.95;;
41711;SDS011;27399;51.516;13.670;2023-01-04T16:11:31;1.58;;;1.25;;
41711;SDS011;27399;51.516;13.670;2023-01-04T16:13:56;0.95;;;0.80;;
41711;SDS011;27399;51.516;13.670;2023-01-04T16:16:23;3.30;;;0.90;;
41711;SDS011;27399;51.516;13.670;2023-01-04T16:18:54;3.90;;;0.73;;
41711;SDS011;27399;51.516;13.670;2023-01-04T16:21:24;1.58;;;0.90;;
41711;SDS011;27399;51.516;13.670;2023-01-04T16:23:52;1.45;;;0.75;;
41711;SDS011;27399;51.516;13.670;2023-01-04T16:26:19;2.58;;;0.70;;
41711;SDS011;27399;51.516;13.670;2023-01-04T16:28:51;3.15;;;0.65;;
41711;SDS011;27399;51.516;13.670;2023-01-04T16:31:18;1.88;;;0.70;;
41711;SDS011;27399;51.516;13.670;2023-01-04T16:33:45;1.10;;;0.57;;
41711;SDS011;27399;51.516;13.670;2023-01-04T16:36:14;2.47;;;0.73;;
41711;SDS011;27399;51.516;13.670;2023-01-04T16:38:41;1.17;;;0.70;;
41711;SDS011;27399;51.516;13.670;2023-01-04T16:41:10;2.13;;;1.10;;
41711;SDS011;27399;51.516;13.670;2023-01-04T16:43:41;2.10;;;0.80;;
41711;SDS011;27399;51.516;13.670;2023-01-04T16:48:41;0.70;;;0.50;;
41711;SDS011;27399;51.516;13.670;2023-01-04T16:51:08;2.23;;;0.80;;
41711;SDS011;27399;51.516;13.670;2023-01-04T16:53:34;1.40;;;0.80;;
41711;SDS011;27399;51.516;13.670;2023-01-04T16:56:07;1.75;;;0.88;;
41711;SDS011;27399;51.516;13.670;2023-01-04T16:58:35;2.40;;;0.85;;
41711;SDS011;27399;51.516;13.670;2023-01-04T17:01:07;1.30;;;0.80;;